Time;durP1;ratioP1;P1;durP2;ratioP2;P2;SDS_P1;SDS_P2;PMS_P1;PMS_P2;Temp;Humidity;BMP_temperature;BMP_pressure;BME280_temperature;BME280_humidity;BME280_pressure;Samples;Min_cycle;Max_cycle;Signal;HPM_P1;HPM_P2
2022/12/13 00:01:18;;;;;;;8.80;6.20;;;;;;;-4.47;100.00;99025.75;6198083;23;20204;-80
2022/12/13 00:03:45;;;;;;;11.00;6.87;;;;;;;-4.52;100.00;99027.94;6223274;23;20740;-82
2022/12/13 00:06:13;;;;;;;8.93;6.10;;;;;;;-4.59;100.00;99032.09;6223810;23;20219;-80
2022/12/13 00:08:40;;;;;;;10.50;6.60;;;;;;;-4.63;100.00;99031.56;6251387;23;20204;-81
2022/12/13 00:11:11;;;;;;;9.47;6.47;;;;;;;-4.54;100.00;99027.28;6199685;23;20221;-81
2022/12/13 00:13:38;;;;;;;10.03;6.50;;;;;;;-4.52;100.00;99031.38;6195098;23;20205;-81
2022/12/13 00:16:07;;;;;;;9.90;6.57;;;;;;;-4.69;100.00;99031.28;6193505;23;20205;-80
2022/12/13 00:18:34;;;;;;;9.10;6.60;;;;;;;-4.58;100.00;99029.34;6193859;23;20213;-81
2022/12/13 00:21:05;;;;;;;8.87;6.43;;;;;;;-4.63;100.00;99026.31;6193943;23;20229;-81
2022/12/13 00:23:32;;;;;;;9.47;5.93;;;;;;;-4.60;100.00;99027.81;6181084;23;20662;-81
2022/12/13 00:26:08;;;;;;;10.70;6.50;;;;;;;-4.70;100.00;99029.63;6188070;23;20297;-80
2022/12/13 00:28:35;;;;;;;8.17;5.67;;;;;;;-4.62;100.00;99029.78;6182080;23;20205;-81
2022/12/13 00:31:02;;;;;;;8.93;5.77;;;;;;;-4.61;100.00;99032.22;6163946;23;20228;-81
2022/12/13 00:33:48;;;;;;;8.17;5.77;;;;;;;-4.64;100.00;99021.22;6211043;23;20209;-81
2022/12/13 00:36:16;;;;;;;10.40;6.43;;;;;;;-4.66;100.00;99029.19;6193186;23;20280;-80
2022/12/13 00:38:42;;;;;;;8.17;5.70;;;;;;;-4.66;100.00;99028.38;6193712;23;20209;-81
2022/12/13 00:41:18;;;;;;;9.73;5.77;;;;;;;-4.78;100.00;99032.09;6220199;23;20304;-81
2022/12/13 00:43:45;;;;;;;8.83;5.50;;;;;;;-4.74;100.00;99036.06;6219431;23;20233;-81
2022/12/13 00:46:17;;;;;;;7.90;5.70;;;;;;;-4.76;100.00;99038.03;6190505;23;20659;-81
2022/12/13 00:48:48;;;;;;;8.60;6.17;;;;;;;-4.72;100.00;99035.00;6194925;23;20229;-80
2022/12/13 00:51:15;;;;;;;9.20;5.93;;;;;;;-4.65;100.00;99038.69;6191413;23;20217;-81
2022/12/13 00:53:42;;;;;;;9.93;6.17;;;;;;;-4.70;100.00;99032.22;6194738;23;20205;-81
2022/12/13 00:56:13;;;;;;;7.13;4.90;;;;;;;-4.76;100.00;99038.03;6193115;23;20228;-80
2022/12/13 00:58:40;;;;;;;8.50;5.57;;;;;;;-4.83;100.00;99039.53;6193851;23;20205;-81
2022/12/13 01:01:14;;;;;;;8.70;5.47;;;;;;;-4.88;100.00;99037.31;6219762;23;20209;-80
2022/12/13 01:03:41;;;;;;;8.73;5.10;;;;;;;-4.76;100.00;99048.47;6220039;23;20281;-80
2022/12/13 01:06:32;;;;;;;8.53;5.17;;;;;;;-4.84;100.00;99054.38;6194211;23;20209;-80
2022/12/13 01:09:00;;;;;;;7.73;5.53;;;;;;;-4.89;100.00;99044.31;6213086;23;20209;-80
2022/12/13 01:11:26;;;;;;;7.90;5.57;;;;;;;-4.86;100.00;99039.81;6164736;23;20670;-81
2022/12/13 01:13:53;;;;;;;8.47;5.40;;;;;;;-4.91;100.00;99046.25;6213866;23;20289;-81
2022/12/13 01:16:20;;;;;;;7.43;5.70;;;;;;;-4.94;100.00;99041.28;6197729;23;20205;-80
2022/12/13 01:18:47;;;;;;;9.57;5.87;;;;;;;-4.98;100.00;99052.16;6249893;23;20208;-80
2022/12/13 01:21:16;;;;;;;7.13;5.50;;;;;;;-4.91;100.00;99034.97;6248987;23;20232;-81
2022/12/13 01:23:43;;;;;;;9.23;6.03;;;;;;;-5.04;100.00;99029.19;6248813;23;20205;-80
2022/12/13 01:26:12;;;;;;;10.27;6.07;;;;;;;-5.08;100.00;99033.84;6249561;23;20232;-80
2022/12/13 01:28:39;;;;;;;9.60;6.03;;;;;;;-5.12;100.00;99026.41;6223364;23;20207;-81
2022/12/13 01:31:08;;;;;;;8.47;5.67;;;;;;;-5.17;100.00;99032.03;6248943;23;20295;-80
2022/12/13 01:33:35;;;;;;;8.07;6.00;;;;;;;-5.17;100.00;99033.84;6223372;23;20275;-81
2022/12/13 01:36:10;;;;;;;8.43;6.10;;;;;;;-5.20;100.00;99032.31;6222178;23;20724;-80
2022/12/13 01:38:37;;;;;;;8.67;5.93;;;;;;;-5.26;100.00;99026.81;6248744;23;20212;-80
2022/12/13 01:41:04;;;;;;;9.53;5.40;;;;;;;-5.32;100.00;99024.75;6250517;22;20228;-80
2022/12/13 01:43:43;;;;;;;12.97;6.00;;;;;;;-5.34;100.00;99019.66;6249981;23;20232;-80
2022/12/13 01:46:10;;;;;;;9.43;5.73;;;;;;;-5.32;100.00;99030.81;6249031;23;20236;-82
2022/12/13 01:48:41;;;;;;;8.60;5.37;;;;;;;-5.44;100.00;99024.84;6223913;23;20212;-80
2022/12/13 01:51:09;;;;;;;8.47;5.30;;;;;;;-5.55;100.00;99011.88;6247893;23;20264;-81
2022/12/13 01:53:38;;;;;;;7.73;4.97;;;;;;;-5.56;100.00;99014.66;6249036;23;20615;-80
2022/12/13 01:56:22;;;;;;;8.47;5.80;;;;;;;-5.63;100.00;99011.75;6221538;23;20201;-80
2022/12/13 01:58:50;;;;;;;9.47;5.63;;;;;;;-5.61;100.00;99022.06;6247127;23;20208;-80
2022/12/13 02:01:18;;;;;;;9.13;5.40;;;;;;;-5.62;100.00;99026.44;6221731;23;20212;-81
2022/12/13 02:03:45;;;;;;;8.43;5.73;;;;;;;-5.65;100.00;99024.09;6245294;23;20216;-81
2022/12/13 02:06:25;;;;;;;8.80;5.43;;;;;;;-5.68;100.00;99026.13;6244511;23;20296;-81
2022/12/13 02:08:52;;;;;;;6.57;4.90;;;;;;;-5.74;100.00;99026.69;6193999;23;20209;-82
2022/12/13 02:11:18;;;;;;;8.27;5.17;;;;;;;-5.79;100.00;99025.28;6246196;23;20197;-81
2022/12/13 02:13:45;;;;;;;7.70;5.20;;;;;;;-5.88;100.00;99028.69;6218885;23;20205;-80
2022/12/13 02:16:47;;;;;;;8.73;5.47;;;;;;;-5.90;100.00;99030.63;6218876;23;20287;-81
2022/12/13 02:19:47;;;;;;;9.97;5.83;;;;;;;-5.94;100.00;99023.19;6153105;23;20594;-82
2022/12/13 02:22:48;;;;;;;9.27;7.77;;;;;;;-5.98;100.00;99024.41;6202826;23;20211;-82
2022/12/13 02:25:33;;;;;;;9.23;6.77;;;;;;;-5.97;100.00;99026.88;6219213;23;20205;-82
2022/12/13 02:28:27;;;;;;;8.10;6.00;;;;;;;-6.01;100.00;99037.69;6245180;23;20217;-83
2022/12/13 02:31:21;;;;;;;9.50;6.07;;;;;;;-6.05;100.00;99033.69;6245126;23;20220;-81
2022/12/13 02:34:09;;;;;;;7.90;5.03;;;;;;;-5.97;100.00;99036.50;6244770;23;20608;-84
2022/12/13 02:37:18;;;;;;;7.97;5.40;;;;;;;-6.02;100.00;99030.84;6218712;23;20592;-82
2022/12/13 02:40:00;;;;;;;8.50;5.60;;;;;;;-5.99;100.00;99026.19;6245183;23;20209;-83
2022/12/13 02:42:30;;;;;;;9.13;5.60;;;;;;;-5.96;100.00;99012.88;6218176;23;20204;-83
2022/12/13 02:45:06;;;;;;;8.50;5.60;;;;;;;-5.97;100.00;99013.81;6218643;23;20216;-82
2022/12/13 02:47:36;;;;;;;9.47;5.50;;;;;;;-5.94;100.00;99013.59;6245303;23;20660;-81
2022/12/13 02:50:06;;;;;;;7.97;5.70;;;;;;;-6.00;100.00;99008.88;6217850;23;20204;-84
2022/12/13 02:52:33;;;;;;;14.10;10.00;;;;;;;-6.05;100.00;99018.88;6217849;23;20212;-81
2022/12/13 02:55:06;;;;;;;7.93;6.17;;;;;;;-6.00;100.00;99021.91;6245122;23;20212;-86
2022/12/13 02:57:37;;;;;;;8.67;6.07;;;;;;;-5.97;100.00;99020.84;6218263;23;20232;-81
2022/12/13 03:00:04;;;;;;;8.77;5.83;;;;;;;-5.96;100.00;99023.31;6244247;23;20548;-84
2022/12/13 03:03:08;;;;;;;9.27;5.33;;;;;;;-6.00;100.00;99015.88;6245065;23;20284;-80
2022/12/13 03:08:47;;;;;;;9.07;5.30;;;;;;;-5.89;100.00;99007.97;6244496;23;20212;-83
2022/12/13 03:11:17;;;;;;;7.47;4.83;;;;;;;-5.99;100.00;99010.53;6218222;23;20989;-81
2022/12/13 03:13:47;;;;;;;7.33;4.87;;;;;;;-6.02;100.00;99010.78;6188083;23;20288;-82
2022/12/13 03:16:19;;;;;;;7.90;5.23;;;;;;;-6.03;100.00;99010.94;6187229;23;20284;-82
2022/12/13 03:18:51;;;;;;;7.33;4.83;;;;;;;-6.08;100.00;99006.09;6214491;23;20204;-81
2022/12/13 03:21:20;;;;;;;8.10;5.03;;;;;;;-6.09;100.00;99003.63;6188449;23;20292;-80
2022/12/13 03:23:47;;;;;;;7.70;5.57;;;;;;;-6.10;100.00;99012.38;6187930;23;20732;-81
2022/12/13 03:26:17;;;;;;;8.40;5.07;;;;;;;-6.03;100.00;99010.94;6213725;23;20205;-81
2022/12/13 03:28:44;;;;;;;8.03;5.07;;;;;;;-6.10;100.00;99013.22;6188318;23;20209;-82
2022/12/13 03:31:11;;;;;;;8.13;5.00;;;;;;;-6.16;100.00;98998.09;6188149;23;20280;-81
2022/12/13 03:33:37;;;;;;;8.47;5.33;;;;;;;-6.13;100.00;99012.66;6187939;23;20243;-81
2022/12/13 03:36:04;;;;;;;9.53;5.40;;;;;;;-6.18;100.00;99012.22;6187515;23;20284;-83
2022/12/13 03:38:31;;;;;;;7.73;5.00;;;;;;;-6.25;100.00;99002.28;6214292;23;20276;-82
2022/12/13 03:41:02;;;;;;;6.97;4.83;;;;;;;-6.30;100.00;99004.47;6187874;23;20202;-81
2022/12/13 03:43:28;;;;;;;8.00;4.63;;;;;;;-6.35;100.00;99003.22;6214048;23;20626;-82
2022/12/13 03:45:55;;;;;;;8.07;5.13;;;;;;;-6.36;100.00;99009.38;6188205;23;20263;-81
2022/12/13 03:48:22;;;;;;;8.10;5.37;;;;;;;-6.28;100.00;99002.56;6187335;23;20204;-82
2022/12/13 03:50:51;;;;;;;8.83;5.17;;;;;;;-6.24;100.00;99003.94;6214279;23;20260;-82
2022/12/13 03:53:18;;;;;;;8.27;5.10;;;;;;;-6.19;100.00;99010.56;6214139;23;20260;-81
2022/12/13 03:55:59;;;;;;;8.63;4.93;;;;;;;-6.18;100.00;99010.44;6214278;23;20212;-81
2022/12/13 03:58:28;;;;;;;7.20;5.13;;;;;;;-6.11;100.00;99008.16;6187567;23;20263;-81
2022/12/13 04:01:04;;;;;;;8.20;4.80;;;;;;;-6.26;100.00;99008.50;6189513;23;20215;-80
2022/12/13 04:03:31;;;;;;;8.10;5.33;;;;;;;-6.34;100.00;99010.88;6213180;23;20209;-81
2022/12/13 04:05:57;;;;;;;8.83;5.20;;;;;;;-6.32;100.00;99013.38;6214075;23;20548;-81
2022/12/13 04:08:24;;;;;;;7.93;4.77;;;;;;;-6.33;100.00;99011.72;6186664;23;20276;-81
2022/12/13 04:10:51;;;;;;;6.73;4.77;;;;;;;-6.40;100.00;99010.59;6187268;23;20227;-80
2022/12/13 04:13:33;;;;;;;7.97;4.80;;;;;;;-6.34;100.00;99018.72;6230005;23;20212;-80
2022/12/13 04:16:01;;;;;;;10.07;5.00;;;;;;;-6.38;100.00;99004.28;6244221;23;20208;-80
2022/12/13 04:18:28;;;;;;;8.93;5.70;;;;;;;-6.30;100.00;98999.25;6216577;23;20201;-80
2022/12/13 04:20:56;;;;;;;7.90;5.10;;;;;;;-6.39;100.00;98994.00;6244262;23;20239;-80
2022/12/13 04:23:23;;;;;;;10.53;5.03;;;;;;;-6.39;100.00;98997.41;6243861;23;20197;-83
2022/12/13 04:25:50;;;;;;;7.63;5.03;;;;;;;-6.36;100.00;98996.34;6244066;23;20657;-81
2022/12/13 04:28:16;;;;;;;7.47;4.70;;;;;;;-6.36;100.00;98988.53;6216802;23;20283;-80
2022/12/13 04:30:51;;;;;;;7.17;4.87;;;;;;;-6.36;100.00;98991.13;6218520;23;20281;-81
2022/12/13 04:33:20;;;;;;;8.43;4.93;;;;;;;-6.35;100.00;98983.19;6217716;23;20626;-89
2022/12/13 04:35:47;;;;;;;8.23;4.70;;;;;;;-6.38;100.00;98982.59;6242508;23;20239;-80
2022/12/13 04:38:14;;;;;;;6.83;4.23;;;;;;;-6.42;100.00;98987.25;6192127;23;20239;-80
2022/12/13 04:40:41;;;;;;;7.10;4.37;;;;;;;-6.42;100.00;98984.66;6217061;23;20283;-81
2022/12/13 04:43:08;;;;;;;5.97;4.10;;;;;;;-6.49;100.00;98988.72;6243707;23;20291;-84
2022/12/13 04:45:34;;;;;;;5.70;3.80;;;;;;;-6.49;100.00;98988.72;6244079;23;20209;-81
2022/12/13 04:48:01;;;;;;;7.20;4.30;;;;;;;-6.46;100.00;98991.06;6243346;23;20524;-82
2022/12/13 04:50:28;;;;;;;7.57;4.33;;;;;;;-6.45;100.00;98991.91;6192413;23;20279;-80
2022/12/13 04:52:55;;;;;;;6.23;4.13;;;;;;;-6.49;100.00;98985.28;6243938;23;20236;-79
2022/12/13 04:55:21;;;;;;;6.77;4.47;;;;;;;-6.51;100.00;98993.22;6243764;23;20201;-81
2022/12/13 04:57:48;;;;;;;7.07;4.10;;;;;;;-6.57;100.00;98987.69;6243832;23;20212;-82
2022/12/13 05:00:15;;;;;;;8.17;4.37;;;;;;;-6.59;100.00;98995.66;6243099;23;20283;-80
2022/12/13 05:02:42;;;;;;;5.73;3.80;;;;;;;-6.58;100.00;98986.06;6217274;23;20240;-79
2022/12/13 05:05:09;;;;;;;7.17;4.10;;;;;;;-6.61;100.00;98988.91;6217405;23;20219;-80
2022/12/13 05:07:36;;;;;;;7.87;3.83;;;;;;;-6.67;100.00;98985.84;6243933;23;20279;-81
2022/12/13 05:10:09;;;;;;;7.27;4.03;;;;;;;-6.71;100.00;98981.00;6216570;23;20224;-82
2022/12/13 05:12:36;;;;;;;6.07;3.90;;;;;;;-6.65;100.00;98987.50;6191751;23;20205;-80
2022/12/13 05:15:03;;;;;;;6.40;4.03;;;;;;;-6.68;100.00;98979.00;6218041;23;20325;-82
2022/12/13 05:17:30;;;;;;;6.60;3.80;;;;;;;-6.61;100.00;98996.72;6245547;23;20283;-80
2022/12/13 05:19:57;;;;;;;7.40;4.23;;;;;;;-6.62;100.00;98989.88;6245850;23;20238;-81
2022/12/13 05:22:24;;;;;;;4.90;3.37;;;;;;;-6.72;100.00;98992.41;6245433;23;20204;-80
2022/12/13 05:24:50;;;;;;;6.73;3.90;;;;;;;-6.77;100.00;98987.59;6245605;23;20673;-81
2022/12/13 05:27:17;;;;;;;5.70;3.20;;;;;;;-6.81;100.00;98996.56;6218967;23;20729;-80
2022/12/13 05:29:55;;;;;;;6.17;3.90;;;;;;;-6.85;100.00;98983.94;6245545;23;20200;-80
2022/12/13 05:32:35;;;;;;;7.33;4.10;;;;;;;-6.85;100.00;98992.56;6245159;23;20208;-80
2022/12/13 05:35:14;;;;;;;7.67;4.23;;;;;;;-6.95;100.00;98983.84;6245551;23;20263;-80
2022/12/13 05:37:52;;;;;;;6.10;3.40;;;;;;;-7.01;100.00;98981.78;6245738;23;20231;-80
2022/12/13 05:40:29;;;;;;;5.50;3.87;;;;;;;-7.01;100.00;98981.78;6244888;22;25720;-81
2022/12/13 05:42:57;;;;;;;8.23;4.27;;;;;;;-6.98;100.00;98984.13;6244646;23;20235;-80
2022/12/13 05:45:28;;;;;;;6.00;3.63;;;;;;;-7.02;100.00;98984.50;6245002;23;20212;-81
2022/12/13 05:47:55;;;;;;;6.53;3.90;;;;;;;-7.08;100.00;98990.19;6245469;23;20197;-81
2022/12/13 05:50:22;;;;;;;8.13;4.00;;;;;;;-7.13;100.00;98986.19;6244740;23;20549;-80
2022/12/13 05:52:49;;;;;;;7.13;4.10;;;;;;;-7.13;100.00;98986.19;6218557;23;20204;-80
2022/12/13 05:55:15;;;;;;;6.33;4.37;;;;;;;-7.10;100.00;98986.91;6245553;23;20209;-81
2022/12/13 05:57:42;;;;;;;5.60;4.07;;;;;;;-7.13;100.00;98986.19;6244902;23;20539;-80
2022/12/13 06:00:17;;;;;;;8.47;4.33;;;;;;;-7.09;100.00;98985.94;6219118;23;20276;-81
2022/12/13 06:02:56;;;;;;;6.73;4.00;;;;;;;-7.18;100.00;98982.28;6220899;23;20258;-80
2022/12/13 06:05:27;;;;;;;6.60;4.00;;;;;;;-7.15;100.00;98982.88;6245242;23;20205;-81
2022/12/13 06:07:54;;;;;;;6.17;3.73;;;;;;;-7.09;100.00;98988.56;6245218;23;20279;-80
2022/12/13 06:10:23;;;;;;;6.33;3.93;;;;;;;-7.19;100.00;98994.50;6244907;23;20200;-81
2022/12/13 06:13:01;;;;;;;9.13;4.80;;;;;;;-7.27;100.00;98991.66;6220854;23;20214;-80
2022/12/13 06:15:48;;;;;;;7.13;3.83;;;;;;;-7.20;100.00;98997.22;6242774;23;20673;-80
2022/12/13 06:18:14;;;;;;;7.60;3.87;;;;;;;-7.11;100.00;98999.09;6214449;23;20276;-81
2022/12/13 06:20:41;;;;;;;7.63;4.57;;;;;;;-7.12;100.00;99002.63;6218309;23;20585;-79
2022/12/13 06:23:08;;;;;;;7.50;4.63;;;;;;;-7.16;100.00;99007.25;6243754;23;20279;-80
2022/12/13 06:25:37;;;;;;;8.47;4.37;;;;;;;-7.16;100.00;99006.44;6245059;23;20209;-80
2022/12/13 06:28:04;;;;;;;9.30;4.57;;;;;;;-7.23;100.00;99005.28;6244147;23;20213;-79
2022/12/13 06:30:31;;;;;;;6.20;3.97;;;;;;;-7.30;100.00;99006.72;6244962;23;20259;-80
2022/12/13 06:32:58;;;;;;;9.73;4.60;;;;;;;-7.29;100.00;99014.41;6244930;23;20211;-80
2022/12/13 06:35:25;;;;;;;10.07;4.47;;;;;;;-7.28;100.00;99010.81;6245392;23;20211;-80
2022/12/13 06:37:55;;;;;;;9.87;4.93;;;;;;;-7.25;100.00;99013.22;6219302;23;20271;-80
2022/12/13 06:40:28;;;;;;;9.17;4.80;;;;;;;-7.21;100.00;99019.00;6217910;23;20214;-80
2022/12/13 06:42:54;;;;;;;9.70;5.23;;;;;;;-7.23;100.00;99011.28;6244838;23;20275;-80
2022/12/13 06:45:22;;;;;;;9.47;4.97;;;;;;;-7.13;100.00;99020.03;6243676;23;20201;-81
2022/12/13 06:47:49;;;;;;;10.77;5.17;;;;;;;-7.18;100.00;99016.97;6216647;23;20208;-80
2022/12/13 06:50:15;;;;;;;8.30;4.90;;;;;;;-7.20;100.00;99013.66;6217318;23;20279;-80
2022/12/13 06:52:45;;;;;;;12.07;5.47;;;;;;;-7.10;100.00;99018.97;6218391;23;20547;-80
2022/12/13 06:55:12;;;;;;;9.90;5.40;;;;;;;-7.09;100.00;99014.59;6216128;23;20680;-81
2022/12/13 06:57:39;;;;;;;9.50;4.80;;;;;;;-7.07;100.00;99008.28;6215396;23;20218;-81
2022/12/13 07:00:08;;;;;;;9.33;4.57;;;;;;;-7.04;100.00;99015.03;6243223;23;20205;-80
2022/12/13 07:02:36;;;;;;;10.93;4.37;;;;;;;-7.04;100.00;99015.84;6243689;23;20208;-82
2022/12/13 07:05:04;;;;;;;9.47;4.73;;;;;;;-7.10;100.00;99011.16;6243676;23;20555;-81
2022/12/13 07:07:31;;;;;;;11.67;4.93;;;;;;;-7.07;100.00;99026.53;6242844;23;20263;-80
2022/12/13 07:09:57;;;;;;;10.50;4.50;;;;;;;-6.99;100.00;99021.50;6244107;23;20733;-80
2022/12/13 07:12:24;;;;;;;8.83;4.63;;;;;;;-6.99;100.00;99018.09;6242921;23;20227;-80
2022/12/13 07:14:51;;;;;;;6.97;4.53;;;;;;;-7.01;100.00;99017.41;6217214;23;20288;-81
2022/12/13 07:17:18;;;;;;;9.17;5.10;;;;;;;-6.95;100.00;99022.13;6243820;23;20284;-80
2022/12/13 07:20:01;;;;;;;11.43;5.20;;;;;;;-6.94;100.00;99019.38;6217031;23;20215;-81
2022/12/13 07:22:28;;;;;;;10.03;5.60;;;;;;;-6.83;100.00;99031.53;6243371;23;20287;-81
2022/12/13 07:25:02;;;;;;;8.60;5.47;;;;;;;-6.80;100.00;99026.06;6243392;23;20212;-80
2022/12/13 07:27:28;;;;;;;13.17;5.17;;;;;;;-6.75;100.00;99034.31;6242786;23;20276;-80
2022/12/13 07:29:56;;;;;;;9.87;5.30;;;;;;;-6.74;100.00;99030.78;6213915;23;20247;-80
2022/12/13 07:32:23;;;;;;;10.27;5.33;;;;;;;-6.73;100.00;99032.44;6242543;23;20196;-80
2022/12/13 07:34:50;;;;;;;8.60;5.33;;;;;;;-6.61;100.00;99027.97;6244587;23;20209;-80
2022/12/13 07:37:16;;;;;;;13.03;5.07;;;;;;;-6.54;100.00;99029.16;6244323;23;20233;-81
2022/12/13 07:39:58;;;;;;;7.53;4.60;;;;;;;-6.45;100.00;99031.81;6245148;23;20192;-81
2022/12/13 07:42:29;;;;;;;8.30;4.27;;;;;;;-6.40;100.00;99021.84;6215950;23;20206;-80
2022/12/13 07:44:56;;;;;;;9.30;4.73;;;;;;;-6.33;100.00;99022.97;6218063;23;20611;-80
2022/12/13 07:47:24;;;;;;;8.33;5.10;;;;;;;-6.34;100.00;99018.72;6244975;23;20284;-80
2022/12/13 07:49:51;;;;;;;9.33;5.20;;;;;;;-6.26;100.00;99008.50;6244535;23;20271;-80
2022/12/13 07:52:18;;;;;;;7.73;4.77;;;;;;;-6.21;100.00;99009.88;6216899;23;20287;-80
2022/12/13 07:54:44;;;;;;;7.90;4.80;;;;;;;-6.17;100.00;99009.50;6217577;23;20201;-80
2022/12/13 07:57:12;;;;;;;9.67;4.63;;;;;;;-6.09;100.00;99014.88;6244347;23;20691;-81
2022/12/13 07:59:38;;;;;;;10.27;5.00;;;;;;;-6.01;100.00;99011.59;6244102;23;20219;-79
2022/12/13 08:02:05;;;;;;;11.43;4.67;;;;;;;-5.94;100.00;99016.19;6243750;23;20212;-79
2022/12/13 08:04:32;;;;;;;8.60;5.37;;;;;;;-5.97;100.00;99007.81;6243926;23;20284;-79
2022/12/13 08:07:07;;;;;;;16.60;8.40;;;;;;;-5.91;100.00;99015.09;6243864;23;20209;-78
2022/12/13 08:09:34;;;;;;;10.63;6.20;;;;;;;-5.89;100.00;99007.97;6216415;23;20212;-79
2022/12/13 08:12:01;;;;;;;10.50;5.17;;;;;;;-5.81;100.00;99011.53;6216826;23;20288;-79
2022/12/13 08:14:28;;;;;;;13.17;5.07;;;;;;;-5.72;100.00;99004.69;6217691;23;20239;-79
2022/12/13 08:16:55;;;;;;;10.20;4.60;;;;;;;-5.65;100.00;99005.84;6243432;23;20289;-80
2022/12/13 08:19:21;;;;;;;12.07;4.60;;;;;;;-5.57;100.00;99011.22;6244178;23;20214;-80
2022/12/13 08:21:50;;;;;;;8.40;4.90;;;;;;;-5.48;100.00;99012.19;6244451;23;20204;-80
2022/12/13 08:24:28;;;;;;;8.97;4.60;;;;;;;-5.41;100.00;99013.28;6244059;23;20638;-82
2022/12/13 08:26:59;;;;;;;9.30;4.63;;;;;;;-5.34;100.00;99010.03;6218144;23;20212;-80
2022/12/13 08:29:31;;;;;;;8.30;5.03;;;;;;;-5.29;100.00;99004.41;6218839;23;20210;-79
2022/12/13 08:32:06;;;;;;;14.20;5.43;;;;;;;-5.22;100.00;99007.28;6218540;23;20212;-79
2022/12/13 08:34:32;;;;;;;12.37;6.33;;;;;;;-5.11;100.00;99004.56;6244452;23;20563;-79
2022/12/13 08:36:59;;;;;;;12.40;6.27;;;;;;;-5.07;100.00;98998.09;6244639;23;20228;-80
2022/12/13 08:39:33;;;;;;;11.67;6.10;;;;;;;-5.04;100.00;98990.81;6245163;23;20209;-80
2022/12/13 08:42:06;;;;;;;12.37;6.17;;;;;;;-4.93;100.00;98997.69;6179275;23;20708;-81
2022/12/13 08:44:51;;;;;;;13.47;6.40;;;;;;;-4.76;100.00;99010.09;6221753;23;20217;-80
2022/12/13 08:47:19;;;;;;;12.30;5.27;;;;;;;-4.73;100.00;99004.59;6218617;23;20208;-80
2022/12/13 08:49:58;;;;;;;14.30;6.17;;;;;;;-4.70;100.00;98993.84;6221078;23;20251;-80
2022/12/13 08:52:30;;;;;;;8.33;5.83;;;;;;;-4.62;100.00;98996.59;6247109;23;20545;-79
2022/12/13 08:55:11;;;;;;;13.97;6.20;;;;;;;-4.57;100.00;98999.59;6220495;23;20212;-79
2022/12/13 08:57:38;;;;;;;10.83;6.10;;;;;;;-4.51;100.00;99004.28;6246605;23;20208;-79
2022/12/13 09:00:06;;;;;;;9.07;6.00;;;;;;;-4.43;100.00;98991.34;6246894;23;20208;-79
2022/12/13 09:02:34;;;;;;;13.80;6.73;;;;;;;-4.32;100.00;98992.16;6247507;23;20205;-79
2022/12/13 09:05:08;;;;;;;10.53;6.50;;;;;;;-4.27;100.00;98990.75;6247701;23;20209;-80
2022/12/13 09:07:36;;;;;;;18.40;7.70;;;;;;;-4.15;100.00;98994.03;6247754;23;20205;-80
2022/12/13 09:10:03;;;;;;;19.70;12.07;;;;;;;-4.11;100.00;98990.19;6247770;23;20654;-80
2022/12/13 09:12:50;;;;;;;17.23;8.17;;;;;;;-3.95;100.00;98979.91;6247954;23;20214;-80
2022/12/13 09:15:17;;;;;;;18.67;9.10;;;;;;;-3.95;100.00;98973.84;6247637;23;20209;-81
2022/12/13 09:17:49;;;;;;;18.20;9.13;;;;;;;-4.12;100.00;98971.03;6247165;23;20235;-81
2022/12/13 09:20:18;;;;;;;18.67;9.53;;;;;;;-3.81;100.00;98976.84;6246480;23;20723;-81
2022/12/13 09:22:55;;;;;;;38.37;25.80;;;;;;;-3.80;100.00;98980.28;6247279;23;20212;-80
2022/12/13 09:25:30;;;;;;;20.73;11.60;;;;;;;-3.87;100.00;98968.75;6222370;23;20209;-79
2022/12/13 09:28:06;;;;;;;17.37;7.90;;;;;;;-3.76;100.00;98964.13;6246849;23;20204;-79
2022/12/13 09:30:37;;;;;;;13.97;7.77;;;;;;;-3.48;100.00;98975.44;6247510;23;20283;-80
2022/12/13 09:33:03;;;;;;;14.13;8.40;;;;;;;-3.61;100.00;98967.91;6220385;23;20228;-79
2022/12/13 09:35:51;;;;;;;16.37;7.33;;;;;;;-3.56;100.00;98968.31;6246217;23;20230;-80
2022/12/13 09:38:18;;;;;;;13.00;7.27;;;;;;;-3.47;100.00;98969.22;6218695;23;20236;-79
2022/12/13 09:40:46;;;;;;;11.93;6.73;;;;;;;-3.51;100.00;98970.50;6245633;22;20205;-80
2022/12/13 09:43:20;;;;;;;10.27;6.27;;;;;;;-3.50;100.00;98966.91;6219633;23;20603;-79
2022/12/13 09:46:01;;;;;;;11.80;7.33;;;;;;;-3.50;100.00;98964.28;6244104;23;20219;-79
2022/12/13 09:48:28;;;;;;;8.93;5.83;;;;;;;-3.33;100.00;98965.28;6219218;23;20189;-83
2022/12/13 09:51:00;;;;;;;9.53;6.07;;;;;;;-3.42;100.00;98961.75;6245178;23;20653;-79
2022/12/13 09:53:49;;;;;;;8.77;6.23;;;;;;;-3.31;100.00;98958.09;6245841;23;20208;-80
2022/12/13 09:56:18;;;;;;;7.77;5.63;;;;;;;-3.02;100.00;98963.94;6219108;23;20606;-79
2022/12/13 09:58:48;;;;;;;10.30;5.43;;;;;;;-3.00;100.00;98959.38;6219731;23;20200;-79
2022/12/13 10:01:15;;;;;;;7.37;5.33;;;;;;;-2.87;100.00;98951.13;6245654;23;20212;-79
2022/12/13 10:03:51;;;;;;;8.60;5.43;;;;;;;-2.76;100.00;98956.16;6221480;23;20208;-79
2022/12/13 10:06:20;;;;;;;8.87;5.90;;;;;;;-2.80;100.00;98954.81;6218772;23;20235;-79
2022/12/13 10:08:52;;;;;;;7.07;5.07;;;;;;;-2.68;100.00;98945.72;6219783;23;20282;-79
2022/12/13 10:11:25;;;;;;;7.93;5.70;;;;;;;-2.59;100.00;98942.19;6246084;23;20204;-79
2022/12/13 10:14:16;;;;;;;10.10;5.73;;;;;;;-2.56;100.00;98946.28;6221196;23;20523;-79
2022/12/13 10:16:49;;;;;;;9.23;5.57;;;;;;;-2.36;100.00;98935.47;6243618;23;20223;-80
2022/12/13 10:19:19;;;;;;;8.13;5.80;;;;;;;-2.24;100.00;98934.22;6219254;23;20208;-79
2022/12/13 10:21:56;;;;;;;9.03;5.50;;;;;;;-2.22;100.00;98913.06;6221157;23;20204;-79
2022/12/13 10:24:29;;;;;;;10.30;5.97;;;;;;;-2.17;100.00;98918.69;6219877;23;20208;-79
2022/12/13 10:27:20;;;;;;;8.27;5.50;;;;;;;-2.00;100.00;98914.31;6220464;23;20212;-79
2022/12/13 10:30:12;;;;;;;8.67;6.20;;;;;;;-1.78;100.00;98919.03;6243984;23;20208;-79
2022/12/13 10:33:02;;;;;;;8.63;5.37;;;;;;;-1.57;100.00;98910.72;6245333;23;20205;-79
2022/12/13 10:35:35;;;;;;;7.73;5.00;;;;;;;-1.53;100.00;98901.50;6219234;23;20247;-79
2022/12/13 10:38:07;;;;;;;6.87;5.07;;;;;;;-1.43;100.00;98910.09;6244923;23;20704;-79
2022/12/13 10:40:47;;;;;;;6.73;4.33;;;;;;;-1.29;100.00;98893.69;6245694;22;20215;-79
2022/12/13 10:43:21;;;;;;;7.33;5.27;;;;;;;-1.11;100.00;98886.47;6245369;23;20201;-79
2022/12/13 10:46:00;;;;;;;6.10;4.60;;;;;;;-0.85;100.00;98878.44;6245292;23;20212;-79
2022/12/13 10:48:36;;;;;;;6.73;4.57;;;;;;;-0.64;100.00;98876.09;6244879;23;20669;-79
2022/12/13 10:51:08;;;;;;;8.87;6.63;;;;;;;-0.55;100.00;98867.22;6219207;23;20258;-79
2022/12/13 10:53:48;;;;;;;5.13;3.90;;;;;;;-0.29;100.00;98856.47;6218827;23;20293;-79
2022/12/13 10:56:19;;;;;;;6.43;4.13;;;;;;;-0.07;100.00;98860.16;6218089;23;20204;-79
2022/12/13 10:58:52;;;;;;;7.70;6.20;;;;;;;0.13;97.20;98850.88;6219122;23;20204;-77
2022/12/13 11:01:21;;;;;;;9.03;6.47;;;;;;;0.13;95.93;98853.50;6218708;23;20673;-77
2022/12/13 11:04:00;;;;;;;8.37;5.20;;;;;;;0.18;92.96;98848.53;6218478;23;20547;-77
2022/12/13 11:06:40;;;;;;;6.10;4.20;;;;;;;0.34;91.77;98848.44;6216926;23;20641;-77
2022/12/13 11:09:27;;;;;;;9.13;6.10;;;;;;;0.49;91.27;98851.16;6219123;23;20215;-77
2022/12/13 11:11:56;;;;;;;6.90;4.77;;;;;;;0.52;89.53;98844.69;6244761;23;20664;-77
2022/12/13 11:14:27;;;;;;;6.87;5.47;;;;;;;0.53;88.31;98838.44;6244232;23;20220;-77
2022/12/13 11:17:12;;;;;;;6.10;4.20;;;;;;;0.54;89.35;98840.09;6245166;23;20260;-78
2022/12/13 11:19:48;;;;;;;5.07;3.63;;;;;;;0.66;89.05;98838.69;6244735;23;20204;-77
2022/12/13 11:22:20;;;;;;;5.50;4.33;;;;;;;0.74;88.79;98839.47;6244458;23;20201;-77
2022/12/13 11:24:53;;;;;;;5.33;3.87;;;;;;;0.97;87.34;98831.53;6244913;23;20208;-77
2022/12/13 11:27:43;;;;;;;5.03;4.20;;;;;;;0.89;87.87;98821.84;6218351;23;20208;-77
2022/12/13 11:30:23;;;;;;;4.93;3.87;;;;;;;1.07;87.59;98826.00;6217763;23;20209;-77
2022/12/13 11:33:27;;;;;;;4.50;3.67;;;;;;;1.14;86.15;98829.56;6218518;23;20211;-77
2022/12/13 11:36:22;;;;;;;5.03;3.83;;;;;;;1.16;86.07;98814.38;6244813;23;20597;-77
2022/12/13 11:39:15;;;;;;;5.33;3.90;;;;;;;1.15;85.88;98799.56;6244546;23;20235;-77
2022/12/13 11:41:55;;;;;;;4.83;3.53;;;;;;;1.19;85.84;98800.81;6218387;23;20205;-77
2022/12/13 11:44:37;;;;;;;6.60;4.10;;;;;;;1.24;86.04;98798.47;6244202;23;20267;-77
2022/12/13 11:47:20;;;;;;;4.77;3.60;;;;;;;1.30;85.15;98789.84;6244803;23;20204;-77
2022/12/13 11:49:48;;;;;;;5.83;3.97;;;;;;;1.28;84.81;98805.03;6244909;23;20204;-77